createdAt,value
2023-05-11T00:00:24.536Z,9.7
2023-05-11T00:12:24.426Z,9.7
2023-05-11T00:24:24.553Z,9.7
2023-05-11T00:36:24.503Z,9.7
2023-05-11T00:48:24.563Z,9.5
2023-05-11T01:00:24.432Z,9.6
2023-05-11T01:12:24.528Z,9.6
2023-05-11T01:24:24.450Z,9.5
2023-05-11T01:36:24.580Z,9.5
2023-05-11T01:48:24.553Z,9.4
2023-05-11T02:00:24.421Z,9.3
2023-05-11T02:12:24.520Z,9.2
2023-05-11T02:24:24.436Z,8.9
2023-05-11T02:36:24.519Z,8.9
2023-05-11T02:48:24.486Z,8.7
2023-05-11T03:00:24.591Z,8.6
2023-05-11T03:12:24.543Z,8.7
2023-05-11T03:24:24.430Z,8.7
2023-05-11T03:36:24.549Z,8.7
2023-05-11T03:48:24.538Z,8.8
2023-05-11T04:00:24.453Z,8.9
2023-05-11T04:12:24.510Z,9.0
2023-05-11T04:24:24.445Z,9.1
2023-05-11T04:36:24.427Z,9.2
2023-05-11T04:48:24.441Z,9.3
2023-05-11T05:00:24.544Z,9.4
2023-05-11T05:12:24.515Z,9.5
2023-05-11T05:24:24.456Z,9.7
2023-05-11T05:36:24.437Z,9.9
2023-05-11T05:48:24.437Z,9.9
2023-05-11T06:00:24.434Z,10.0
2023-05-11T06:12:24.528Z,10.1
2023-05-11T06:24:24.457Z,10.1
2023-05-11T06:36:24.499Z,10.3
2023-05-11T06:48:24.534Z,10.4
2023-05-11T07:00:24.428Z,10.7
2023-05-11T07:12:25.020Z,10.8
2023-05-11T07:24:24.535Z,11.0
2023-05-11T07:36:24.468Z,11.4
2023-05-11T07:48:24.441Z,11.7
2023-05-11T08:00:24.974Z,11.4
2023-05-11T08:12:24.452Z,11.6
2023-05-11T08:24:24.477Z,11.9
2023-05-11T08:36:24.470Z,11.9
2023-05-11T08:48:24.515Z,11.9
2023-05-11T09:00:24.536Z,11.9
2023-05-11T09:12:24.438Z,12.4
2023-05-11T09:24:24.438Z,12.4
2023-05-11T09:36:24.467Z,12.4
2023-05-11T09:48:24.456Z,12.4
2023-05-11T10:00:24.555Z,12.5
2023-05-11T10:12:24.543Z,13.0
2023-05-11T10:24:24.604Z,13.1
2023-05-11T10:36:24.582Z,13.0
2023-05-11T10:48:24.542Z,13.2
2023-05-11T11:00:24.563Z,13.0
2023-05-11T11:12:24.556Z,13.5
2023-05-11T11:24:24.587Z,13.8
2023-05-11T11:36:24.552Z,14.4
2023-05-11T11:48:24.577Z,14.4
2023-05-11T12:00:24.522Z,14.7
2023-05-11T12:12:24.544Z,14.4
2023-05-11T12:24:24.509Z,14.4
2023-05-11T12:36:24.558Z,14.2
2023-05-11T12:48:25.318Z,14.4
2023-05-11T13:00:24.555Z,14.4
2023-05-11T13:12:24.536Z,14.5
2023-05-11T13:24:24.446Z,14.7
2023-05-11T13:36:24.843Z,14.7
2023-05-11T13:48:24.553Z,14.6
2023-05-11T14:00:24.536Z,14.7
2023-05-11T14:12:24.522Z,14.4
2023-05-11T14:24:24.580Z,14.3
2023-05-11T14:36:24.426Z,14.4
2023-05-11T14:48:24.514Z,14.4
2023-05-11T15:00:24.515Z,14.3
2023-05-11T15:12:24.447Z,14.1
2023-05-11T15:24:24.435Z,14.0
2023-05-11T15:36:24.544Z,13.7
2023-05-11T15:48:24.488Z,13.3
2023-05-11T16:00:24.533Z,13.2
2023-05-11T16:12:24.526Z,13.0
2023-05-11T16:24:24.454Z,13.0
2023-05-11T16:36:24.431Z,12.5
2023-05-11T16:48:25.067Z,12.1
2023-05-11T17:00:24.529Z,11.9
2023-05-11T17:12:24.455Z,11.9
2023-05-11T17:24:24.483Z,11.9
2023-05-11T17:36:24.518Z,11.5
2023-05-11T17:48:24.497Z,11.4
2023-05-11T18:00:24.428Z,11.4
2023-05-11T18:12:24.524Z,11.4
2023-05-11T18:24:24.534Z,11.2
2023-05-11T18:36:24.541Z,11.2
2023-05-11T18:48:24.559Z,11.0
2023-05-11T19:00:24.562Z,11.0
2023-05-11T19:12:24.432Z,11.0
2023-05-11T19:24:24.441Z,11.1
2023-05-11T19:36:24.451Z,11.0
2023-05-11T19:48:24.468Z,11.0
2023-05-11T20:00:24.530Z,10.9
2023-05-11T20:12:24.443Z,10.9
2023-05-11T20:24:24.430Z,10.8
2023-05-11T20:36:24.563Z,10.8
2023-05-11T20:48:36.346Z,10.8
2023-05-11T21:00:24.649Z,10.8
2023-05-11T21:12:24.524Z,10.8
2023-05-11T21:24:24.528Z,10.8
2023-05-11T21:36:24.450Z,10.7
2023-05-11T21:48:24.422Z,10.7
2023-05-11T22:00:24.417Z,10.7
2023-05-11T22:12:24.543Z,10.7
2023-05-11T22:24:24.461Z,10.5
2023-05-11T22:36:24.438Z,10.6
2023-05-11T22:48:24.546Z,10.5
2023-05-11T23:00:24.535Z,10.5
2023-05-11T23:12:24.435Z,10.5
2023-05-11T23:24:24.430Z,10.5
2023-05-11T23:36:24.529Z,10.5
2023-05-11T23:48:24.612Z,10.5
